sensor_id;sensor_type;location;lat;lon;timestamp;temperature;humidity
43695;DHT22;29300;43.560;1.294;2022-12-07T00:01:11;7.90;99.90
43695;DHT22;29300;43.560;1.294;2022-12-07T00:03:38;7.80;99.90
43695;DHT22;29300;43.560;1.294;2022-12-07T00:06:06;7.70;99.90
43695;DHT22;29300;43.560;1.294;2022-12-07T00:08:32;7.80;99.90
43695;DHT22;29300;43.560;1.294;2022-12-07T00:11:12;7.80;99.90
43695;DHT22;29300;43.560;1.294;2022-12-07T00:13:39;7.80;99.90
43695;DHT22;29300;43.560;1.294;2022-12-07T00:16:11;7.90;99.90
43695;DHT22;29300;43.560;1.294;2022-12-07T00:18:37;7.80;99.90
43695;DHT22;29300;43.560;1.294;2022-12-07T00:21:06;7.70;99.90
43695;DHT22;29300;43.560;1.294;2022-12-07T00:23:33;7.70;99.90
43695;DHT22;29300;43.560;1.294;2022-12-07T00:26:06;7.70;99.90
43695;DHT22;29300;43.560;1.294;2022-12-07T00:28:32;7.80;99.90
43695;DHT22;29300;43.560;1.294;2022-12-07T00:31:10;7.70;99.90
43695;DHT22;29300;43.560;1.294;2022-12-07T00:33:37;7.70;99.90
43695;DHT22;29300;43.560;1.294;2022-12-07T00:36:06;7.60;99.90
43695;DHT22;29300;43.560;1.294;2022-12-07T00:38:35;7.60;99.90
43695;DHT22;29300;43.560;1.294;2022-12-07T00:41:16;7.60;99.90
43695;DHT22;29300;43.560;1.294;2022-12-07T00:43:44;7.60;99.90
43695;DHT22;29300;43.560;1.294;2022-12-07T00:46:10;7.70;99.90
43695;DHT22;29300;43.560;1.294;2022-12-07T00:48:36;7.60;99.90
43695;DHT22;29300;43.560;1.294;2022-12-07T00:51:03;7.40;99.90
43695;DHT22;29300;43.560;1.294;2022-12-07T00:53:29;7.40;99.90
43695;DHT22;29300;43.560;1.294;2022-12-07T00:55:55;7.50;99.90
43695;DHT22;29300;43.560;1.294;2022-12-07T00:58:22;7.50;99.90
43695;DHT22;29300;43.560;1.294;2022-12-07T01:00:48;7.60;99.90
43695;DHT22;29300;43.560;1.294;2022-12-07T01:03:15;7.60;99.90
43695;DHT22;29300;43.560;1.294;2022-12-07T01:05:52;7.50;99.90
43695;DHT22;29300;43.560;1.294;2022-12-07T01:08:19;7.50;99.90
43695;DHT22;29300;43.560;1.294;2022-12-07T01:10:45;7.50;99.90
43695;DHT22;29300;43.560;1.294;2022-12-07T01:13:15;7.50;99.90
43695;DHT22;29300;43.560;1.294;2022-12-07T01:15:44;7.60;99.90
43695;DHT22;29300;43.560;1.294;2022-12-07T01:18:11;7.50;99.90
43695;DHT22;29300;43.560;1.294;2022-12-07T01:20:37;7.50;99.90
43695;DHT22;29300;43.560;1.294;2022-12-07T01:23:03;7.40;99.90
43695;DHT22;29300;43.560;1.294;2022-12-07T01:25:28;7.30;99.90
43695;DHT22;29300;43.560;1.294;2022-12-07T01:27:54;7.30;99.90
43695;DHT22;29300;43.560;1.294;2022-12-07T01:30:20;7.30;99.90
43695;DHT22;29300;43.560;1.294;2022-12-07T01:32:46;7.40;99.90
43695;DHT22;29300;43.560;1.294;2022-12-07T01:35:11;7.40;99.90
43695;DHT22;29300;43.560;1.294;2022-12-07T01:37:38;7.40;99.90
43695;DHT22;29300;43.560;1.294;2022-12-07T01:40:05;7.40;99.90
43695;DHT22;29300;43.560;1.294;2022-12-07T01:42:32;7.40;99.90
43695;DHT22;29300;43.560;1.294;2022-12-07T01:48:01;7.40;99.90
43695;DHT22;29300;43.560;1.294;2022-12-07T01:50:28;7.40;99.90
43695;DHT22;29300;43.560;1.294;2022-12-07T01:52:58;7.50;99.90
43695;DHT22;29300;43.560;1.294;2022-12-07T01:55:25;7.50;99.90
43695;DHT22;29300;43.560;1.294;2022-12-07T01:57:53;7.50;99.90
43695;DHT22;29300;43.560;1.294;2022-12-07T02:00:20;7.40;99.90
43695;DHT22;29300;43.560;1.294;2022-12-07T02:05:18;7.30;99.90
43695;DHT22;29300;43.560;1.294;2022-12-07T02:07:47;7.30;99.90
43695;DHT22;29300;43.560;1.294;2022-12-07T02:10:21;7.40;99.90
43695;DHT22;29300;43.560;1.294;2022-12-07T02:12:54;7.40;99.90
43695;DHT22;29300;43.560;1.294;2022-12-07T02:15:22;7.40;99.90
43695;DHT22;29300;43.560;1.294;2022-12-07T02:20:55;7.40;99.90
43695;DHT22;29300;43.560;1.294;2022-12-07T02:31:31;7.30;99.90
43695;DHT22;29300;43.560;1.294;2022-12-07T02:34:35;7.30;99.90
43695;DHT22;29300;43.560;1.294;2022-12-07T02:37:12;7.30;99.90
43695;DHT22;29300;43.560;1.294;2022-12-07T02:39:55;7.40;99.90
43695;DHT22;29300;43.560;1.294;2022-12-07T02:42:28;7.40;99.90
43695;DHT22;29300;43.560;1.294;2022-12-07T02:44:56;7.30;99.90
43695;DHT22;29300;43.560;1.294;2022-12-07T02:47:23;7.30;99.90
43695;DHT22;29300;43.560;1.294;2022-12-07T02:49:50;7.30;99.90
43695;DHT22;29300;43.560;1.294;2022-12-07T02:52:16;7.30;99.90
43695;DHT22;29300;43.560;1.294;2022-12-07T02:54:42;7.40;99.90
43695;DHT22;29300;43.560;1.294;2022-12-07T03:00:13;7.30;99.90
43695;DHT22;29300;43.560;1.294;2022-12-07T03:05:33;7.20;99.90
43695;DHT22;29300;43.560;1.294;2022-12-07T03:16:15;7.30;99.90
43695;DHT22;29300;43.560;1.294;2022-12-07T03:18:49;7.30;99.90
43695;DHT22;29300;43.560;1.294;2022-12-07T03:21:20;7.30;99.90
43695;DHT22;29300;43.560;1.294;2022-12-07T03:23:52;7.30;99.90
43695;DHT22;29300;43.560;1.294;2022-12-07T03:26:21;7.30;99.90
43695;DHT22;29300;43.560;1.294;2022-12-07T03:28:53;7.40;99.90
43695;DHT22;29300;43.560;1.294;2022-12-07T03:31:28;7.40;99.90
43695;DHT22;29300;43.560;1.294;2022-12-07T03:34:11;7.40;99.90
43695;DHT22;29300;43.560;1.294;2022-12-07T03:39:39;7.40;99.90
43695;DHT22;29300;43.560;1.294;2022-12-07T03:42:07;7.40;99.90
43695;DHT22;29300;43.560;1.294;2022-12-07T03:44:35;7.40;99.90
43695;DHT22;29300;43.560;1.294;2022-12-07T03:52:54;7.50;99.90
43695;DHT22;29300;43.560;1.294;2022-12-07T03:55:34;7.50;99.90
43695;DHT22;29300;43.560;1.294;2022-12-07T03:58:12;7.40;99.90
43695;DHT22;29300;43.560;1.294;2022-12-07T04:00:41;7.30;99.90
43695;DHT22;29300;43.560;1.294;2022-12-07T04:03:08;7.30;99.90
43695;DHT22;29300;43.560;1.294;2022-12-07T04:05:34;7.40;99.90
43695;DHT22;29300;43.560;1.294;2022-12-07T04:08:00;7.40;99.90
43695;DHT22;29300;43.560;1.294;2022-12-07T04:10:26;7.40;99.90
43695;DHT22;29300;43.560;1.294;2022-12-07T04:12:52;7.40;99.90
43695;DHT22;29300;43.560;1.294;2022-12-07T04:15:17;7.40;99.90
43695;DHT22;29300;43.560;1.294;2022-12-07T04:17:43;7.30;99.90
43695;DHT22;29300;43.560;1.294;2022-12-07T04:20:09;7.20;99.90
43695;DHT22;29300;43.560;1.294;2022-12-07T04:22:35;7.30;99.90
43695;DHT22;29300;43.560;1.294;2022-12-07T04:25:01;7.40;99.90
43695;DHT22;29300;43.560;1.294;2022-12-07T04:27:27;7.40;99.90
43695;DHT22;29300;43.560;1.294;2022-12-07T04:29:52;7.40;99.90
43695;DHT22;29300;43.560;1.294;2022-12-07T04:32:18;7.40;99.90
43695;DHT22;29300;43.560;1.294;2022-12-07T04:34:44;7.40;99.90
43695;DHT22;29300;43.560;1.294;2022-12-07T04:37:10;7.40;99.90
43695;DHT22;29300;43.560;1.294;2022-12-07T04:39:35;7.40;99.90
43695;DHT22;29300;43.560;1.294;2022-12-07T04:42:02;7.40;99.90
43695;DHT22;29300;43.560;1.294;2022-12-07T04:44:28;7.40;99.90
43695;DHT22;29300;43.560;1.294;2022-12-07T04:46:55;7.30;99.90
43695;DHT22;29300;43.560;1.294;2022-12-07T04:49:21;7.20;99.90
43695;DHT22;29300;43.560;1.294;2022-12-07T04:51:47;7.30;99.90
43695;DHT22;29300;43.560;1.294;2022-12-07T04:54:14;7.40;99.90
43695;DHT22;29300;43.560;1.294;2022-12-07T04:56:40;7.30;99.90
43695;DHT22;29300;43.560;1.294;2022-12-07T04:59:07;7.30;99.90
43695;DHT22;29300;43.560;1.294;2022-12-07T05:01:33;7.30;99.90
43695;DHT22;29300;43.560;1.294;2022-12-07T05:03:59;7.30;99.90
43695;DHT22;29300;43.560;1.294;2022-12-07T05:06:25;7.40;99.90
43695;DHT22;29300;43.560;1.294;2022-12-07T05:08:51;7.40;99.90
43695;DHT22;29300;43.560;1.294;2022-12-07T05:11:17;7.40;99.90
43695;DHT22;29300;43.560;1.294;2022-12-07T05:14:03;7.40;99.90
43695;DHT22;29300;43.560;1.294;2022-12-07T05:16:29;7.40;99.90
43695;DHT22;29300;43.560;1.294;2022-12-07T05:18:55;7.30;99.90
43695;DHT22;29300;43.560;1.294;2022-12-07T05:21:20;7.40;99.90
43695;DHT22;29300;43.560;1.294;2022-12-07T05:23:46;7.30;99.90
43695;DHT22;29300;43.560;1.294;2022-12-07T05:26:12;7.30;99.90
43695;DHT22;29300;43.560;1.294;2022-12-07T05:28:37;7.30;99.90
43695;DHT22;29300;43.560;1.294;2022-12-07T05:31:03;7.30;99.90
43695;DHT22;29300;43.560;1.294;2022-12-07T05:33:29;7.30;99.90
43695;DHT22;29300;43.560;1.294;2022-12-07T05:35:55;7.30;99.90
43695;DHT22;29300;43.560;1.294;2022-12-07T05:38:20;7.40;99.90
43695;DHT22;29300;43.560;1.294;2022-12-07T05:40:46;7.40;99.90
43695;DHT22;29300;43.560;1.294;2022-12-07T05:43:13;7.30;99.90
43695;DHT22;29300;43.560;1.294;2022-12-07T05:45:39;7.20;99.90
43695;DHT22;29300;43.560;1.294;2022-12-07T05:48:05;7.20;99.90
43695;DHT22;29300;43.560;1.294;2022-12-07T05:50:31;7.30;99.90
43695;DHT22;29300;43.560;1.294;2022-12-07T05:52:56;7.40;99.90
43695;DHT22;29300;43.560;1.294;2022-12-07T05:55:22;7.40;99.90
43695;DHT22;29300;43.560;1.294;2022-12-07T05:57:48;7.40;99.90
43695;DHT22;29300;43.560;1.294;2022-12-07T06:00:32;7.40;99.90
43695;DHT22;29300;43.560;1.294;2022-12-07T06:02:58;7.30;99.90
43695;DHT22;29300;43.560;1.294;2022-12-07T06:05:24;7.30;99.90
43695;DHT22;29300;43.560;1.294;2022-12-07T06:07:49;7.30;99.90
43695;DHT22;29300;43.560;1.294;2022-12-07T06:10:15;7.30;99.90
43695;DHT22;29300;43.560;1.294;2022-12-07T06:12:41;7.30;99.90
43695;DHT22;29300;43.560;1.294;2022-12-07T06:15:09;7.30;99.90
43695;DHT22;29300;43.560;1.294;2022-12-07T06:17:35;7.30;99.90
43695;DHT22;29300;43.560;1.294;2022-12-07T06:20:01;7.30;99.90
43695;DHT22;29300;43.560;1.294;2022-12-07T06:22:27;7.30;99.90
43695;DHT22;29300;43.560;1.294;2022-12-07T06:24:52;7.20;99.90
43695;DHT22;29300;43.560;1.294;2022-12-07T06:27:18;7.30;99.90
43695;DHT22;29300;43.560;1.294;2022-12-07T06:29:44;7.30;99.90
43695;DHT22;29300;43.560;1.294;2022-12-07T06:32:09;7.20;99.90
43695;DHT22;29300;43.560;1.294;2022-12-07T06:34:35;7.10;99.90
43695;DHT22;29300;43.560;1.294;2022-12-07T06:37:01;7.20;99.90
43695;DHT22;29300;43.560;1.294;2022-12-07T06:39:28;7.20;99.90
43695;DHT22;29300;43.560;1.294;2022-12-07T06:41:54;7.30;99.90
43695;DHT22;29300;43.560;1.294;2022-12-07T06:44:21;7.20;99.90
43695;DHT22;29300;43.560;1.294;2022-12-07T06:46:48;7.20;99.90
43695;DHT22;29300;43.560;1.294;2022-12-07T06:49:14;7.20;99.90
43695;DHT22;29300;43.560;1.294;2022-12-07T06:51:40;7.10;99.90
43695;DHT22;29300;43.560;1.294;2022-12-07T06:54:12;7.10;99.90
43695;DHT22;29300;43.560;1.294;2022-12-07T06:56:38;7.10;99.90
43695;DHT22;29300;43.560;1.294;2022-12-07T06:59:04;7.00;99.90
43695;DHT22;29300;43.560;1.294;2022-12-07T07:01:32;7.10;99.90
43695;DHT22;29300;43.560;1.294;2022-12-07T07:03:58;7.00;99.90
43695;DHT22;29300;43.560;1.294;2022-12-07T07:06:23;7.00;99.90
43695;DHT22;29300;43.560;1.294;2022-12-07T07:08:49;7.10;99.90
43695;DHT22;29300;43.560;1.294;2022-12-07T07:11:15;7.00;99.90
43695;DHT22;29300;43.560;1.294;2022-12-07T07:13:41;6.90;99.90
43695;DHT22;29300;43.560;1.294;2022-12-07T07:16:07;7.00;99.90
43695;DHT22;29300;43.560;1.294;2022-12-07T07:18:33;7.00;99.90
43695;DHT22;29300;43.560;1.294;2022-12-07T07:20:59;7.00;99.90
43695;DHT22;29300;43.560;1.294;2022-12-07T07:23:24;6.90;99.90
43695;DHT22;29300;43.560;1.294;2022-12-07T07:25:50;7.00;99.90
43695;DHT22;29300;43.560;1.294;2022-12-07T07:28:16;6.90;99.90
43695;DHT22;29300;43.560;1.294;2022-12-07T07:30:42;6.90;99.90
43695;DHT22;29300;43.560;1.294;2022-12-07T07:33:10;7.00;99.90
43695;DHT22;29300;43.560;1.294;2022-12-07T07:35:36;7.10;99.90
43695;DHT22;29300;43.560;1.294;2022-12-07T07:38:02;7.10;99.90
43695;DHT22;29300;43.560;1.294;2022-12-07T07:40:28;7.10;99.90
43695;DHT22;29300;43.560;1.294;2022-12-07T07:42:54;7.20;99.90
43695;DHT22;29300;43.560;1.294;2022-12-07T07:45:22;7.20;99.90
43695;DHT22;29300;43.560;1.294;2022-12-07T07:47:48;7.20;99.90
43695;DHT22;29300;43.560;1.294;2022-12-07T07:50:14;7.20;99.90
43695;DHT22;29300;43.560;1.294;2022-12-07T07:52:40;7.20;99.90
43695;DHT22;29300;43.560;1.294;2022-12-07T07:55:06;7.10;99.90
43695;DHT22;29300;43.560;1.294;2022-12-07T07:57:37;7.20;99.90
43695;DHT22;29300;43.560;1.294;2022-12-07T08:00:12;7.20;99.90
43695;DHT22;29300;43.560;1.294;2022-12-07T08:02:39;7.30;99.90
43695;DHT22;29300;43.560;1.294;2022-12-07T08:05:05;7.40;99.90
43695;DHT22;29300;43.560;1.294;2022-12-07T08:07:31;7.40;99.90
43695;DHT22;29300;43.560;1.294;2022-12-07T08:09:56;7.50;99.90
43695;DHT22;29300;43.560;1.294;2022-12-07T08:12:22;7.50;99.90
43695;DHT22;29300;43.560;1.294;2022-12-07T08:14:48;7.60;99.90
43695;DHT22;29300;43.560;1.294;2022-12-07T08:17:13;7.60;99.90
43695;DHT22;29300;43.560;1.294;2022-12-07T08:19:39;7.60;99.90
43695;DHT22;29300;43.560;1.294;2022-12-07T08:22:05;7.70;99.90
43695;DHT22;29300;43.560;1.294;2022-12-07T08:24:33;7.70;99.90
43695;DHT22;29300;43.560;1.294;2022-12-07T08:26:59;7.80;99.90
43695;DHT22;29300;43.560;1.294;2022-12-07T08:29:25;7.90;99.90
43695;DHT22;29300;43.560;1.294;2022-12-07T08:31:51;7.90;99.90
43695;DHT22;29300;43.560;1.294;2022-12-07T08:34:16;7.90;99.90
43695;DHT22;29300;43.560;1.294;2022-12-07T08:36:42;7.80;99.90
43695;DHT22;29300;43.560;1.294;2022-12-07T08:39:08;7.90;99.90
43695;DHT22;29300;43.560;1.294;2022-12-07T08:41:34;7.90;99.90
43695;DHT22;29300;43.560;1.294;2022-12-07T08:43:59;8.10;99.90
43695;DHT22;29300;43.560;1.294;2022-12-07T08:46:26;8.10;99.90
43695;DHT22;29300;43.560;1.294;2022-12-07T08:49:02;9.00;99.90
43695;DHT22;29300;43.560;1.294;2022-12-07T08:51:28;9.00;99.90
43695;DHT22;29300;43.560;1.294;2022-12-07T08:53:55;8.90;99.90
43695;DHT22;29300;43.560;1.294;2022-12-07T08:56:23;8.90;99.90
43695;DHT22;29300;43.560;1.294;2022-12-07T08:58:49;9.00;99.90
43695;DHT22;29300;43.560;1.294;2022-12-07T09:01:15;9.00;99.90
43695;DHT22;29300;43.560;1.294;2022-12-07T09:03:40;9.00;99.90
43695;DHT22;29300;43.560;1.294;2022-12-07T09:06:07;9.00;99.90
43695;DHT22;29300;43.560;1.294;2022-12-07T09:08:37;9.10;99.90
43695;DHT22;29300;43.560;1.294;2022-12-07T09:11:04;9.00;99.90
43695;DHT22;29300;43.560;1.294;2022-12-07T09:13:30;9.00;99.90
43695;DHT22;29300;43.560;1.294;2022-12-07T09:15:56;9.00;99.90
43695;DHT22;29300;43.560;1.294;2022-12-07T09:18:21;9.10;99.90
43695;DHT22;29300;43.560;1.294;2022-12-07T09:20:47;9.10;99.90
43695;DHT22;29300;43.560;1.294;2022-12-07T09:23:13;9.10;99.90
43695;DHT22;29300;43.560;1.294;2022-12-07T09:25:38;9.20;99.90
43695;DHT22;29300;43.560;1.294;2022-12-07T09:28:04;9.10;99.90
43695;DHT22;29300;43.560;1.294;2022-12-07T09:30:30;9.10;99.90
43695;DHT22;29300;43.560;1.294;2022-12-07T09:32:57;9.00;99.90
43695;DHT22;29300;43.560;1.294;2022-12-07T09:35:23;9.10;99.90
43695;DHT22;29300;43.560;1.294;2022-12-07T09:37:49;9.00;99.90
43695;DHT22;29300;43.560;1.294;2022-12-07T09:40:16;9.00;99.90
43695;DHT22;29300;43.560;1.294;2022-12-07T09:42:45;9.10;99.90
43695;DHT22;29300;43.560;1.294;2022-12-07T09:45:17;9.10;99.90
43695;DHT22;29300;43.560;1.294;2022-12-07T09:47:45;9.20;99.90
43695;DHT22;29300;43.560;1.294;2022-12-07T09:50:19;9.20;99.90
43695;DHT22;29300;43.560;1.294;2022-12-07T09:52:45;9.20;99.90
43695;DHT22;29300;43.560;1.294;2022-12-07T09:55:24;9.30;99.90
43695;DHT22;29300;43.560;1.294;2022-12-07T09:57:50;9.30;99.90
43695;DHT22;29300;43.560;1.294;2022-12-07T10:00:19;9.20;99.90
43695;DHT22;29300;43.560;1.294;2022-12-07T10:03:00;9.30;99.90
43695;DHT22;29300;43.560;1.294;2022-12-07T10:05:38;9.30;99.90
43695;DHT22;29300;43.560;1.294;2022-12-07T10:08:05;9.30;99.90
43695;DHT22;29300;43.560;1.294;2022-12-07T10:10:33;9.30;99.90
43695;DHT22;29300;43.560;1.294;2022-12-07T10:13:05;9.30;99.90
43695;DHT22;29300;43.560;1.294;2022-12-07T10:15:49;9.50;99.90
43695;DHT22;29300;43.560;1.294;2022-12-07T10:26:35;9.60;99.90
43695;DHT22;29300;43.560;1.294;2022-12-07T10:29:21;9.70;99.90
43695;DHT22;29300;43.560;1.294;2022-12-07T10:32:34;9.90;99.90
43695;DHT22;29300;43.560;1.294;2022-12-07T10:35:18;9.80;99.90
43695;DHT22;29300;43.560;1.294;2022-12-07T10:37:44;10.00;99.90
43695;DHT22;29300;43.560;1.294;2022-12-07T10:40:33;10.00;99.90
43695;DHT22;29300;43.560;1.294;2022-12-07T10:43:18;10.00;99.90
43695;DHT22;29300;43.560;1.294;2022-12-07T10:48:25;10.30;99.90
43695;DHT22;29300;43.560;1.294;2022-12-07T10:56:49;10.30;99.90
43695;DHT22;29300;43.560;1.294;2022-12-07T11:05:16;10.50;99.90
43695;DHT22;29300;43.560;1.294;2022-12-07T11:07:55;10.50;99.90
43695;DHT22;29300;43.560;1.294;2022-12-07T11:10:36;10.70;99.90
43695;DHT22;29300;43.560;1.294;2022-12-07T11:21:26;11.20;99.90
43695;DHT22;29300;43.560;1.294;2022-12-07T11:24:03;11.10;99.90
43695;DHT22;29300;43.560;1.294;2022-12-07T11:35:03;11.00;99.90
43695;DHT22;29300;43.560;1.294;2022-12-07T11:37:34;11.00;99.90
43695;DHT22;29300;43.560;1.294;2022-12-07T11:42:55;10.80;99.90
43695;DHT22;29300;43.560;1.294;2022-12-07T11:45:34;10.80;99.90
43695;DHT22;29300;43.560;1.294;2022-12-07T11:48:52;10.80;99.90
43695;DHT22;29300;43.560;1.294;2022-12-07T11:50:55;10.90;99.90
43695;DHT22;29300;43.560;1.294;2022-12-07T11:53:37;11.00;99.90
43695;DHT22;29300;43.560;1.294;2022-12-07T11:56:14;11.00;99.90
43695;DHT22;29300;43.560;1.294;2022-12-07T12:06:43;11.10;99.90
43695;DHT22;29300;43.560;1.294;2022-12-07T12:09:12;11.40;99.90
43695;DHT22;29300;43.560;1.294;2022-12-07T12:20:21;11.90;99.90
43695;DHT22;29300;43.560;1.294;2022-12-07T12:22:51;11.80;99.90
43695;DHT22;29300;43.560;1.294;2022-12-07T12:25:30;11.70;99.90
43695;DHT22;29300;43.560;1.294;2022-12-07T12:27:58;11.80;99.90
43695;DHT22;29300;43.560;1.294;2022-12-07T12:30:39;12.20;99.90
43695;DHT22;29300;43.560;1.294;2022-12-07T12:33:18;12.40;99.90
43695;DHT22;29300;43.560;1.294;2022-12-07T12:35:45;12.60;99.90
43695;DHT22;29300;43.560;1.294;2022-12-07T12:40:53;12.20;99.90
43695;DHT22;29300;43.560;1.294;2022-12-07T12:43:46;11.90;99.90
43695;DHT22;29300;43.560;1.294;2022-12-07T12:56:59;12.80;99.90
43695;DHT22;29300;43.560;1.294;2022-12-07T12:59:30;12.90;99.90
43695;DHT22;29300;43.560;1.294;2022-12-07T13:05:03;12.40;99.90
43695;DHT22;29300;43.560;1.294;2022-12-07T13:33:46;12.30;99.90
43695;DHT22;29300;43.560;1.294;2022-12-07T13:36:27;12.30;99.90
43695;DHT22;29300;43.560;1.294;2022-12-07T13:39:00;12.20;99.90
43695;DHT22;29300;43.560;1.294;2022-12-07T13:41:35;12.10;99.90
43695;DHT22;29300;43.560;1.294;2022-12-07T13:44:11;12.20;99.90
43695;DHT22;29300;43.560;1.294;2022-12-07T13:49:26;12.10;99.90
43695;DHT22;29300;43.560;1.294;2022-12-07T13:51:53;12.00;99.90
43695;DHT22;29300;43.560;1.294;2022-12-07T13:54:20;12.00;99.90
43695;DHT22;29300;43.560;1.294;2022-12-07T13:56:51;11.90;99.90
43695;DHT22;29300;43.560;1.294;2022-12-07T13:59:21;11.90;99.90
43695;DHT22;29300;43.560;1.294;2022-12-07T14:01:48;11.80;99.90
43695;DHT22;29300;43.560;1.294;2022-12-07T14:06:52;11.80;99.90
43695;DHT22;29300;43.560;1.294;2022-12-07T14:09:20;11.90;99.90
43695;DHT22;29300;43.560;1.294;2022-12-07T14:11:49;11.90;99.90
43695;DHT22;29300;43.560;1.294;2022-12-07T14:14:22;11.90;99.90
43695;DHT22;29300;43.560;1.294;2022-12-07T14:17:02;11.70;99.90
43695;DHT22;29300;43.560;1.294;2022-12-07T14:19:52;11.70;99.90
43695;DHT22;29300;43.560;1.294;2022-12-07T14:24:59;11.60;99.90
43695;DHT22;29300;43.560;1.294;2022-12-07T14:27:31;11.60;99.90
43695;DHT22;29300;43.560;1.294;2022-12-07T14:30:00;11.40;99.90
43695;DHT22;29300;43.560;1.294;2022-12-07T14:32:28;11.40;99.90
43695;DHT22;29300;43.560;1.294;2022-12-07T14:35:00;11.40;99.90
43695;DHT22;29300;43.560;1.294;2022-12-07T14:37:28;11.40;99.90
43695;DHT22;29300;43.560;1.294;2022-12-07T14:39:54;11.40;99.90
43695;DHT22;29300;43.560;1.294;2022-12-07T14:42:20;11.40;99.90
43695;DHT22;29300;43.560;1.294;2022-12-07T14:44:47;11.30;99.90
43695;DHT22;29300;43.560;1.294;2022-12-07T14:47:12;11.30;99.90
43695;DHT22;29300;43.560;1.294;2022-12-07T14:49:38;11.30;99.90
43695;DHT22;29300;43.560;1.294;2022-12-07T14:52:05;11.20;99.90
43695;DHT22;29300;43.560;1.294;2022-12-07T14:54:32;11.20;99.90
43695;DHT22;29300;43.560;1.294;2022-12-07T14:56:58;11.20;99.90
43695;DHT22;29300;43.560;1.294;2022-12-07T14:59:24;11.20;99.90
43695;DHT22;29300;43.560;1.294;2022-12-07T15:01:50;11.30;99.90
43695;DHT22;29300;43.560;1.294;2022-12-07T15:04:15;11.30;99.90
43695;DHT22;29300;43.560;1.294;2022-12-07T15:06:41;11.30;99.90
43695;DHT22;29300;43.560;1.294;2022-12-07T15:09:10;11.20;99.90
43695;DHT22;29300;43.560;1.294;2022-12-07T15:11:36;11.10;99.90
43695;DHT22;29300;43.560;1.294;2022-12-07T15:14:02;11.10;99.90
43695;DHT22;29300;43.560;1.294;2022-12-07T15:16:34;11.10;99.90
43695;DHT22;29300;43.560;1.294;2022-12-07T15:19:00;11.10;99.90
43695;DHT22;29300;43.560;1.294;2022-12-07T15:21:26;11.10;99.90
43695;DHT22;29300;43.560;1.294;2022-12-07T15:23:52;10.90;99.90
43695;DHT22;29300;43.560;1.294;2022-12-07T15:26:17;10.70;99.90
43695;DHT22;29300;43.560;1.294;2022-12-07T15:28:43;10.40;99.90
43695;DHT22;29300;43.560;1.294;2022-12-07T15:31:16;10.40;99.90
43695;DHT22;29300;43.560;1.294;2022-12-07T15:33:43;10.40;99.90
43695;DHT22;29300;43.560;1.294;2022-12-07T15:36:22;10.30;99.90
43695;DHT22;29300;43.560;1.294;2022-12-07T15:38:48;10.30;99.90
43695;DHT22;29300;43.560;1.294;2022-12-07T15:41:14;10.40;99.90
43695;DHT22;29300;43.560;1.294;2022-12-07T15:43:40;10.40;99.90
43695;DHT22;29300;43.560;1.294;2022-12-07T15:46:33;10.30;99.90
43695;DHT22;29300;43.560;1.294;2022-12-07T15:48:59;10.30;99.90
43695;DHT22;29300;43.560;1.294;2022-12-07T15:51:26;10.20;99.90
43695;DHT22;29300;43.560;1.294;2022-12-07T15:53:52;10.10;99.90
43695;DHT22;29300;43.560;1.294;2022-12-07T15:56:18;10.10;99.90
43695;DHT22;29300;43.560;1.294;2022-12-07T15:58:43;10.00;99.90
43695;DHT22;29300;43.560;1.294;2022-12-07T16:01:17;10.00;99.90
43695;DHT22;29300;43.560;1.294;2022-12-07T16:03:44;10.00;99.90
43695;DHT22;29300;43.560;1.294;2022-12-07T16:06:10;10.00;99.90
43695;DHT22;29300;43.560;1.294;2022-12-07T16:08:36;9.90;99.90
43695;DHT22;29300;43.560;1.294;2022-12-07T16:11:06;9.80;99.90
43695;DHT22;29300;43.560;1.294;2022-12-07T16:13:32;9.70;99.90
43695;DHT22;29300;43.560;1.294;2022-12-07T16:16:01;9.60;99.90
43695;DHT22;29300;43.560;1.294;2022-12-07T16:18:27;9.40;99.90
43695;DHT22;29300;43.560;1.294;2022-12-07T16:20:53;9.40;99.90
43695;DHT22;29300;43.560;1.294;2022-12-07T16:23:18;9.40;99.90
43695;DHT22;29300;43.560;1.294;2022-12-07T16:25:44;9.20;99.90
43695;DHT22;29300;43.560;1.294;2022-12-07T16:28:09;9.20;99.90
43695;DHT22;29300;43.560;1.294;2022-12-07T16:30:35;9.40;99.90
43695;DHT22;29300;43.560;1.294;2022-12-07T16:33:01;9.20;99.90
43695;DHT22;29300;43.560;1.294;2022-12-07T16:35:27;9.20;99.90
43695;DHT22;29300;43.560;1.294;2022-12-07T16:37:52;9.20;99.90
43695;DHT22;29300;43.560;1.294;2022-12-07T16:40:18;9.20;99.90
43695;DHT22;29300;43.560;1.294;2022-12-07T16:42:44;9.00;99.90
43695;DHT22;29300;43.560;1.294;2022-12-07T16:45:09;8.90;99.90
43695;DHT22;29300;43.560;1.294;2022-12-07T16:47:39;8.80;99.90
43695;DHT22;29300;43.560;1.294;2022-12-07T16:50:06;8.50;99.90
43695;DHT22;29300;43.560;1.294;2022-12-07T16:52:33;8.40;99.90
43695;DHT22;29300;43.560;1.294;2022-12-07T16:54:59;8.50;99.90
43695;DHT22;29300;43.560;1.294;2022-12-07T16:57:24;8.20;99.90
43695;DHT22;29300;43.560;1.294;2022-12-07T16:59:51;8.20;99.90
43695;DHT22;29300;43.560;1.294;2022-12-07T17:02:17;8.30;99.90
43695;DHT22;29300;43.560;1.294;2022-12-07T17:04:43;8.20;99.90
43695;DHT22;29300;43.560;1.294;2022-12-07T17:07:09;8.10;99.90
43695;DHT22;29300;43.560;1.294;2022-12-07T17:09:36;8.10;99.90
43695;DHT22;29300;43.560;1.294;2022-12-07T17:12:02;8.00;99.90
43695;DHT22;29300;43.560;1.294;2022-12-07T17:14:28;7.90;99.90
43695;DHT22;29300;43.560;1.294;2022-12-07T17:17:12;8.00;99.90
43695;DHT22;29300;43.560;1.294;2022-12-07T17:19:38;8.00;99.90
43695;DHT22;29300;43.560;1.294;2022-12-07T17:22:04;7.80;99.90
43695;DHT22;29300;43.560;1.294;2022-12-07T17:24:30;7.90;99.90
43695;DHT22;29300;43.560;1.294;2022-12-07T17:26:56;7.70;99.90
43695;DHT22;29300;43.560;1.294;2022-12-07T17:29:22;7.60;99.90
43695;DHT22;29300;43.560;1.294;2022-12-07T17:31:48;7.70;99.90
43695;DHT22;29300;43.560;1.294;2022-12-07T17:34:14;7.50;99.90
43695;DHT22;29300;43.560;1.294;2022-12-07T17:36:42;7.30;99.90
43695;DHT22;29300;43.560;1.294;2022-12-07T17:39:09;7.40;99.90
43695;DHT22;29300;43.560;1.294;2022-12-07T17:41:36;7.20;99.90
43695;DHT22;29300;43.560;1.294;2022-12-07T17:44:20;7.20;99.90
43695;DHT22;29300;43.560;1.294;2022-12-07T17:46:49;7.40;99.90
43695;DHT22;29300;43.560;1.294;2022-12-07T17:49:15;7.00;99.90
43695;DHT22;29300;43.560;1.294;2022-12-07T17:51:41;7.00;99.90
43695;DHT22;29300;43.560;1.294;2022-12-07T17:54:26;7.20;99.90
43695;DHT22;29300;43.560;1.294;2022-12-07T17:56:51;7.00;99.90
43695;DHT22;29300;43.560;1.294;2022-12-07T17:59:17;7.00;99.90
43695;DHT22;29300;43.560;1.294;2022-12-07T18:01:43;7.00;99.90
43695;DHT22;29300;43.560;1.294;2022-12-07T18:04:11;6.70;99.90
43695;DHT22;29300;43.560;1.294;2022-12-07T18:06:37;6.80;99.90
43695;DHT22;29300;43.560;1.294;2022-12-07T18:09:04;6.70;99.90
43695;DHT22;29300;43.560;1.294;2022-12-07T18:11:30;6.60;99.90
43695;DHT22;29300;43.560;1.294;2022-12-07T18:13:57;6.70;99.90
43695;DHT22;29300;43.560;1.294;2022-12-07T18:16:24;6.60;99.90
43695;DHT22;29300;43.560;1.294;2022-12-07T18:18:51;6.50;99.90
43695;DHT22;29300;43.560;1.294;2022-12-07T18:21:23;6.50;99.90